createdAt,value
2018-04-25T00:00:50.249Z,20.63
2018-04-25T00:03:20.270Z,20.60
2018-04-25T00:05:49.370Z,20.60
2018-04-25T00:08:19.176Z,20.56
2018-04-25T00:10:49.164Z,20.54
2018-04-25T00:13:18.184Z,20.53
2018-04-25T00:15:47.316Z,20.57
2018-04-25T00:20:51.389Z,20.65
2018-04-25T00:23:20.305Z,20.59
2018-04-25T00:25:49.408Z,20.57
2018-04-25T00:28:19.320Z,20.53
2018-04-25T00:30:48.415Z,20.49
2018-04-25T00:33:18.584Z,20.39
2018-04-25T00:35:49.774Z,20.35
2018-04-25T00:38:19.124Z,20.26
2018-04-25T00:40:48.213Z,20.23
2018-04-25T00:43:18.195Z,20.20
2018-04-25T00:45:47.451Z,20.14
2018-04-25T00:48:16.529Z,20.08
2018-04-25T00:50:47.427Z,20.03
2018-04-25T00:53:16.459Z,19.98
2018-04-25T00:55:45.742Z,19.96
2018-04-25T00:58:15.758Z,19.91
2018-04-25T01:00:45.767Z,19.80
2018-04-25T01:03:15.021Z,19.73
2018-04-25T01:05:44.207Z,19.69
2018-04-25T01:08:13.262Z,19.69
2018-04-25T01:10:42.398Z,19.59
2018-04-25T01:13:11.493Z,19.56
2018-04-25T01:15:40.485Z,19.51
2018-04-25T01:18:09.560Z,19.47
2018-04-25T01:20:40.336Z,19.50
2018-04-25T01:23:10.501Z,19.46
2018-04-25T01:25:41.647Z,19.37
2018-04-25T01:28:11.461Z,19.33
2018-04-25T01:33:24.840Z,19.25
2018-04-25T01:36:03.631Z,19.26
2018-04-25T01:38:33.749Z,19.25
2018-04-25T01:41:11.979Z,19.26
2018-04-25T01:43:51.201Z,19.20
2018-04-25T01:46:37.294Z,19.16
2018-04-25T01:49:18.164Z,19.14
2018-04-25T01:52:02.060Z,19.21
2018-04-25T01:54:48.720Z,19.17
2018-04-25T01:57:36.345Z,19.08
2018-04-25T02:00:23.160Z,19.07
2018-04-25T02:02:57.368Z,19.02
2018-04-25T02:05:26.018Z,19.04
2018-04-25T02:07:55.258Z,19.07
2018-04-25T02:10:24.167Z,19.10
2018-04-25T02:12:53.291Z,19.06
2018-04-25T02:15:22.249Z,19.07
2018-04-25T02:17:52.367Z,19.04
2018-04-25T02:20:21.358Z,19.04
2018-04-25T02:22:50.860Z,19.04
2018-04-25T02:25:20.786Z,19.00
2018-04-25T02:27:50.009Z,18.97
2018-04-25T02:30:18.973Z,18.96
2018-04-25T02:32:49.691Z,18.99
2018-04-25T02:35:18.804Z,19.05
2018-04-25T02:37:47.801Z,19.10
2018-04-25T02:40:19.253Z,19.13
2018-04-25T02:42:48.146Z,19.14
2018-04-25T02:45:17.242Z,19.19
2018-04-25T02:47:46.876Z,19.21
2018-04-25T02:50:15.841Z,19.13
2018-04-25T02:52:44.837Z,19.10
2018-04-25T02:55:14.033Z,19.11
2018-04-25T02:57:42.926Z,19.05
2018-04-25T03:00:11.921Z,19.00
2018-04-25T03:02:43.708Z,19.03
2018-04-25T03:05:12.673Z,18.96
2018-04-25T03:07:41.871Z,18.88
2018-04-25T03:10:10.877Z,18.87
2018-04-25T03:12:39.812Z,18.87
2018-04-25T03:15:08.731Z,18.81
2018-04-25T03:17:39.309Z,18.70
2018-04-25T03:20:08.277Z,18.63
2018-04-25T03:22:38.233Z,18.65
2018-04-25T03:25:08.621Z,18.65
2018-04-25T03:27:39.699Z,18.64
2018-04-25T03:30:08.652Z,18.71
2018-04-25T03:32:37.654Z,18.78
2018-04-25T03:35:07.031Z,18.84
2018-04-25T03:37:36.049Z,19.10
2018-04-25T03:40:05.974Z,19.40
2018-04-25T03:42:35.066Z,19.65
2018-04-25T03:45:04.166Z,19.84
2018-04-25T03:47:34.891Z,20.01
2018-04-25T03:50:03.884Z,20.24
2018-04-25T03:52:33.248Z,20.36
2018-04-25T03:55:02.116Z,20.63
2018-04-25T03:57:31.775Z,20.82
2018-04-25T04:00:01.543Z,21.13
2018-04-25T04:02:32.487Z,21.45
2018-04-25T04:05:01.432Z,21.84
2018-04-25T04:07:30.577Z,22.01
2018-04-25T04:09:59.627Z,21.88
2018-04-25T04:12:28.719Z,22.25
2018-04-25T04:14:57.615Z,22.49
2018-04-25T04:17:27.387Z,22.93
2018-04-25T04:19:57.052Z,23.22
2018-04-25T04:22:27.918Z,23.44
2018-04-25T04:24:56.924Z,23.51
2018-04-25T04:27:25.968Z,23.73
2018-04-25T04:29:55.064Z,23.61
2018-04-25T04:32:25.023Z,23.72
2018-04-25T04:34:54.176Z,23.57
2018-04-25T04:37:23.138Z,23.93
2018-04-25T04:39:53.701Z,24.67
2018-04-25T04:42:22.693Z,25.06
2018-04-25T04:44:51.583Z,25.12
2018-04-25T04:47:21.546Z,25.17
2018-04-25T04:49:50.616Z,25.46
2018-04-25T04:52:19.584Z,25.48
2018-04-25T04:54:49.341Z,25.36
2018-04-25T04:57:18.398Z,25.56
2018-04-25T04:59:48.110Z,25.74
2018-04-25T05:02:17.321Z,25.53
2018-04-25T05:04:46.353Z,25.24
2018-04-25T05:07:15.502Z,25.84
2018-04-25T05:09:50.231Z,25.52
2018-04-25T05:12:21.952Z,26.10
2018-04-25T05:14:53.545Z,25.84
2018-04-25T05:17:22.645Z,25.68
2018-04-25T05:19:51.667Z,26.47
2018-04-25T05:22:20.626Z,26.83
2018-04-25T05:24:49.650Z,26.71
2018-04-25T05:27:19.248Z,27.01
2018-04-25T05:29:49.156Z,27.33
2018-04-25T05:32:18.146Z,27.58
2018-04-25T05:34:47.036Z,28.04
2018-04-25T05:37:17.162Z,28.54
2018-04-25T05:39:46.050Z,29.21
2018-04-25T05:42:16.680Z,29.07
2018-04-25T05:44:47.312Z,29.11
2018-04-25T05:47:16.405Z,29.72
2018-04-25T05:49:45.343Z,30.16
2018-04-25T05:52:14.393Z,29.69
2018-04-25T05:54:45.269Z,29.47
2018-04-25T05:57:15.057Z,29.00
2018-04-25T05:59:46.498Z,28.72
2018-04-25T06:02:15.797Z,28.34
2018-04-25T06:04:44.897Z,28.47
2018-04-25T06:07:14.466Z,28.56
2018-04-25T06:09:43.856Z,29.66
2018-04-25T06:12:12.736Z,31.16
2018-04-25T06:14:41.711Z,30.18
2018-04-25T06:17:10.686Z,32.14
2018-04-25T06:19:40.498Z,31.19
2018-04-25T06:22:10.342Z,29.41
2018-04-25T06:24:40.283Z,30.49
2018-04-25T06:27:09.153Z,31.78
2018-04-25T06:29:38.148Z,33.10
2018-04-25T06:32:06.972Z,32.26
2018-04-25T06:34:35.952Z,34.08
2018-04-25T06:37:10.028Z,34.37
2018-04-25T06:39:39.106Z,33.91
2018-04-25T06:42:09.513Z,32.42
2018-04-25T06:44:39.443Z,32.67
2018-04-25T06:47:08.341Z,32.74
2018-04-25T06:49:37.542Z,33.31
2018-04-25T06:52:06.535Z,33.42
2018-04-25T06:54:35.820Z,32.40
2018-04-25T06:57:04.730Z,32.67
2018-04-25T06:59:34.626Z,32.38
2018-04-25T07:02:03.544Z,32.01
2018-04-25T07:04:33.044Z,31.85
2018-04-25T07:07:01.975Z,31.16
2018-04-25T07:09:30.929Z,31.03
2018-04-25T07:11:59.818Z,30.95
2018-04-25T07:14:29.628Z,31.19
2018-04-25T07:16:58.524Z,31.33
2018-04-25T07:19:28.583Z,31.03
2018-04-25T07:21:57.638Z,30.58
2018-04-25T07:24:26.771Z,31.47
2018-04-25T07:26:55.676Z,31.55
2018-04-25T07:29:27.390Z,31.58
2018-04-25T07:31:57.201Z,29.48
2018-04-25T07:34:26.300Z,29.89
2018-04-25T07:36:55.306Z,29.87
2018-04-25T07:39:24.170Z,29.18
2018-04-25T07:41:53.165Z,28.90
2018-04-25T07:44:22.274Z,28.40
2018-04-25T07:46:52.086Z,28.11
2018-04-25T07:49:21.060Z,27.79
2018-04-25T07:51:51.818Z,27.34
2018-04-25T07:54:22.863Z,26.94
2018-04-25T07:56:51.755Z,26.30
2018-04-25T07:59:24.117Z,26.23
2018-04-25T08:01:53.219Z,26.21
2018-04-25T08:04:22.214Z,26.18
2018-04-25T08:06:51.205Z,26.28
2018-04-25T08:09:20.199Z,26.20
2018-04-25T08:11:49.200Z,25.97
2018-04-25T08:14:31.807Z,25.98
2018-04-25T08:17:12.586Z,25.52
2018-04-25T08:19:54.128Z,25.53
2018-04-25T08:22:23.122Z,25.78
2018-04-25T08:24:52.055Z,25.62
2018-04-25T08:27:23.606Z,25.57
2018-04-25T08:29:52.563Z,25.61
2018-04-25T08:32:22.253Z,25.45
2018-04-25T08:34:51.341Z,25.64
2018-04-25T08:37:20.511Z,25.73
2018-04-25T08:39:49.552Z,25.67
2018-04-25T08:42:18.497Z,25.52
2018-04-25T08:44:47.532Z,25.44
2018-04-25T08:47:16.486Z,25.04
2018-04-25T08:49:47.092Z,24.81
2018-04-25T08:52:16.046Z,24.84
2018-04-25T08:54:45.006Z,24.66
2018-04-25T08:57:14.817Z,24.53
2018-04-25T08:59:43.713Z,24.36
2018-04-25T09:02:12.811Z,24.17
2018-04-25T09:04:43.491Z,24.21
2018-04-25T09:07:12.581Z,24.36
2018-04-25T09:09:41.539Z,24.55
2018-04-25T09:12:11.340Z,24.29
2018-04-25T09:14:40.340Z,24.46
2018-04-25T09:17:09.328Z,24.54
2018-04-25T09:22:14.070Z,24.17
2018-04-25T09:24:43.138Z,24.11
2018-04-25T09:27:12.072Z,24.05
2018-04-25T09:29:41.060Z,23.87
2018-04-25T09:32:10.820Z,23.85
2018-04-25T09:34:39.864Z,23.99
2018-04-25T09:37:08.758Z,24.13
2018-04-25T09:39:38.798Z,24.18
2018-04-25T09:42:07.824Z,24.12
2018-04-25T09:44:36.763Z,24.38
2018-04-25T09:47:05.669Z,24.28
2018-04-25T09:52:08.148Z,24.12
2018-04-25T09:54:37.047Z,24.18
2018-04-25T09:57:09.932Z,24.32
2018-04-25T09:59:39.733Z,24.10
2018-04-25T10:02:08.735Z,23.95
2018-04-25T10:04:39.347Z,24.22
2018-04-25T10:07:08.254Z,24.04
2018-04-25T10:09:37.352Z,24.15
2018-04-25T10:12:06.385Z,24.29
2018-04-25T10:14:35.283Z,24.24
2018-04-25T10:17:04.280Z,24.14
2018-04-25T10:19:35.176Z,24.04
2018-04-25T10:22:04.034Z,23.91
2018-04-25T10:24:33.912Z,24.10
2018-04-25T10:27:03.050Z,24.05
2018-04-25T10:29:32.156Z,23.72
2018-04-25T10:32:01.221Z,23.77
2018-04-25T10:37:03.969Z,23.69
2018-04-25T10:39:34.250Z,23.50
2018-04-25T10:42:03.499Z,23.47
2018-04-25T10:44:32.493Z,23.53
2018-04-25T10:47:01.597Z,23.66
2018-04-25T10:49:31.649Z,23.66
2018-04-25T10:52:00.749Z,23.54
2018-04-25T10:54:30.207Z,23.51
2018-04-25T10:56:59.136Z,23.54
2018-04-25T10:59:29.012Z,23.47
2018-04-25T11:01:58.010Z,23.58
2018-04-25T11:04:28.634Z,23.68
2018-04-25T11:06:57.661Z,23.67
2018-04-25T11:09:26.645Z,23.70
2018-04-25T11:14:30.406Z,23.71
2018-04-25T11:16:59.862Z,23.71
2018-04-25T11:19:28.855Z,23.66
2018-04-25T11:21:57.747Z,23.60
2018-04-25T11:24:26.735Z,23.62
2018-04-25T11:26:56.343Z,23.77
2018-04-25T11:29:25.261Z,23.70
2018-04-25T11:31:55.039Z,23.77
2018-04-25T11:34:24.856Z,23.78
2018-04-25T11:36:53.859Z,23.83
2018-04-25T11:39:23.597Z,23.88
2018-04-25T11:41:54.364Z,23.90
2018-04-25T11:44:23.301Z,23.92
2018-04-25T11:46:52.908Z,23.78
2018-04-25T11:49:22.666Z,23.78
2018-04-25T11:51:51.613Z,23.72
2018-04-25T11:54:20.603Z,23.70
2018-04-25T11:56:50.704Z,23.64
2018-04-25T11:59:19.636Z,23.69
2018-04-25T12:01:48.713Z,23.78
2018-04-25T12:06:52.127Z,23.69
2018-04-25T12:09:21.150Z,23.74
2018-04-25T12:11:50.120Z,23.95
2018-04-25T12:16:53.226Z,23.50
2018-04-25T12:19:22.153Z,23.25
2018-04-25T12:21:51.245Z,23.25
2018-04-25T12:24:20.833Z,23.12
2018-04-25T12:26:49.819Z,23.35
2018-04-25T12:29:20.494Z,23.18
2018-04-25T12:31:49.383Z,23.28
2018-04-25T12:34:18.440Z,23.14
2018-04-25T12:36:50.094Z,23.29
2018-04-25T12:39:19.091Z,23.51
2018-04-25T12:41:47.987Z,23.37
2018-04-25T12:44:17.241Z,22.94
2018-04-25T12:46:46.313Z,22.62
2018-04-25T12:49:15.475Z,22.76
2018-04-25T12:51:44.549Z,22.86
2018-04-25T12:54:13.464Z,22.85
2018-04-25T12:56:42.449Z,22.80
2018-04-25T12:59:12.375Z,22.84
2018-04-25T13:01:42.296Z,22.90
2018-04-25T13:04:11.285Z,22.60
2018-04-25T13:06:43.040Z,22.25
2018-04-25T13:09:12.034Z,22.02
2018-04-25T13:11:41.032Z,22.14
2018-04-25T13:14:10.164Z,21.87
2018-04-25T13:16:40.046Z,21.93
2018-04-25T13:19:09.594Z,21.87
2018-04-25T13:24:12.861Z,21.97
2018-04-25T13:26:41.885Z,21.98
2018-04-25T13:29:11.793Z,22.05
2018-04-25T13:31:40.651Z,22.13
2018-04-25T13:34:09.644Z,22.10
2018-04-25T13:36:40.487Z,21.97
2018-04-25T13:39:10.002Z,21.74
2018-04-25T13:41:38.998Z,21.84
2018-04-25T13:49:15.393Z,21.91
2018-04-25T13:51:44.357Z,21.90
2018-04-25T13:54:16.824Z,21.97
2018-04-25T13:56:45.878Z,21.88
2018-04-25T13:59:15.756Z,21.88
2018-04-25T14:01:46.457Z,21.80
2018-04-25T14:04:17.737Z,21.82
2018-04-25T14:09:21.605Z,21.73
2018-04-25T14:11:51.302Z,21.44
2018-04-25T14:14:21.106Z,21.38
2018-04-25T14:16:50.091Z,21.46
2018-04-25T14:19:19.205Z,21.54
2018-04-25T14:21:49.212Z,21.56
2018-04-25T14:24:18.085Z,21.55
2018-04-25T14:26:47.096Z,21.53
2018-04-25T14:29:15.995Z,21.52
2018-04-25T14:31:44.992Z,21.58
2018-04-25T14:34:14.905Z,21.53
2018-04-25T14:36:44.015Z,21.43
2018-04-25T14:39:13.088Z,21.48
2018-04-25T14:41:45.705Z,21.30
2018-04-25T14:44:14.880Z,21.20
2018-04-25T14:46:43.861Z,21.19
2018-04-25T14:51:47.119Z,21.28
2018-04-25T14:54:16.837Z,21.12
2018-04-25T14:56:46.822Z,21.18
2018-04-25T14:59:15.705Z,21.02
2018-04-25T15:01:45.081Z,20.96
2018-04-25T15:04:14.960Z,20.82
2018-04-25T15:06:43.820Z,20.84
2018-04-25T15:09:12.862Z,20.94
2018-04-25T15:11:42.739Z,20.93
2018-04-25T15:14:11.728Z,20.77
2018-04-25T15:16:40.611Z,20.88
2018-04-25T15:19:09.699Z,20.96
2018-04-25T15:21:38.692Z,21.00
2018-04-25T15:24:07.897Z,20.80
2018-04-25T15:26:39.719Z,20.68
2018-04-25T15:29:08.818Z,20.79
2018-04-25T15:31:37.871Z,20.84
2018-04-25T15:34:08.942Z,20.88
2018-04-25T15:36:37.893Z,20.89
2018-04-25T15:39:07.116Z,20.89
2018-04-25T15:41:36.278Z,20.91
2018-04-25T15:44:05.275Z,20.81
2018-04-25T15:46:34.219Z,20.47
2018-04-25T15:49:03.887Z,20.45
2018-04-25T15:51:32.872Z,20.46
2018-04-25T15:54:01.851Z,20.43
2018-04-25T15:56:32.601Z,20.30
2018-04-25T15:59:01.596Z,20.19
2018-04-25T16:01:31.617Z,19.95
2018-04-25T16:04:02.903Z,19.95
2018-04-25T16:06:32.361Z,19.86
2018-04-25T16:09:01.396Z,19.81
2018-04-25T16:11:31.223Z,19.72
2018-04-25T16:14:00.123Z,19.66
2018-04-25T16:16:29.067Z,19.64
2018-04-25T16:18:58.145Z,19.64
2018-04-25T16:21:27.100Z,19.64
2018-04-25T16:23:56.195Z,19.55
2018-04-25T16:26:25.246Z,19.47
2018-04-25T16:28:54.236Z,19.31
2018-04-25T16:31:23.243Z,19.25
2018-04-25T16:33:52.157Z,19.30
2018-04-25T16:36:21.134Z,19.34
2018-04-25T16:38:50.215Z,19.35
2018-04-25T16:41:19.315Z,19.31
2018-04-25T16:43:49.942Z,19.32
2018-04-25T16:46:19.049Z,19.31
2018-04-25T16:48:48.929Z,19.29
2018-04-25T16:51:18.054Z,19.28
2018-04-25T16:53:47.769Z,19.14
2018-04-25T16:56:18.627Z,19.03
2018-04-25T16:58:47.895Z,19.02
2018-04-25T17:01:18.030Z,19.05
2018-04-25T17:03:48.085Z,19.06
2018-04-25T17:06:17.237Z,19.04
2018-04-25T17:08:46.657Z,19.06
2018-04-25T17:11:16.101Z,19.04
2018-04-25T17:13:45.091Z,19.05
2018-04-25T17:16:14.096Z,19.02
2018-04-25T17:18:43.093Z,18.98
2018-04-25T17:21:12.179Z,18.95
2018-04-25T17:23:41.326Z,18.77
2018-04-25T17:26:10.319Z,18.67
2018-04-25T17:28:39.454Z,18.60
2018-04-25T17:31:08.478Z,18.54
2018-04-25T17:33:37.447Z,18.49
2018-04-25T17:36:07.309Z,18.53
2018-04-25T17:38:36.212Z,18.53
2018-04-25T17:41:05.152Z,18.46
2018-04-25T17:43:34.139Z,18.50
2018-04-25T17:46:03.088Z,18.57
2018-04-25T17:48:33.937Z,18.55
2018-04-25T17:51:03.336Z,18.52
2018-04-25T17:53:32.320Z,18.50
2018-04-25T17:58:39.118Z,18.40
2018-04-25T18:01:08.215Z,18.41
2018-04-25T18:03:39.928Z,18.38
2018-04-25T18:06:09.785Z,18.36
2018-04-25T18:08:38.885Z,18.35
2018-04-25T18:11:08.905Z,18.37
2018-04-25T18:13:38.040Z,18.33
2018-04-25T18:16:06.980Z,18.30
2018-04-25T18:18:37.031Z,18.29
2018-04-25T18:21:06.239Z,18.27
2018-04-25T18:23:35.194Z,18.22
2018-04-25T18:26:05.208Z,18.20
2018-04-25T18:28:34.326Z,18.16
2018-04-25T18:31:03.214Z,18.13
2018-04-25T18:33:35.406Z,18.10
2018-04-25T18:36:04.678Z,18.09
2018-04-25T18:38:33.771Z,18.10
2018-04-25T18:41:02.949Z,18.06
2018-04-25T18:43:32.129Z,18.01
2018-04-25T18:46:01.065Z,17.97
2018-04-25T18:48:33.326Z,17.95
2018-04-25T18:51:02.536Z,17.87
2018-04-25T18:53:31.496Z,17.82
2018-04-25T18:58:36.580Z,17.76
2018-04-25T19:01:06.806Z,17.75
2018-04-25T19:03:35.682Z,17.72
2018-04-25T19:06:05.586Z,17.55
2018-04-25T19:08:34.375Z,17.46
2018-04-25T19:11:03.185Z,17.30
2018-04-25T19:13:34.845Z,17.20
2018-04-25T19:16:03.842Z,17.16
2018-04-25T19:18:32.883Z,17.27
2018-04-25T19:21:01.995Z,17.35
2018-04-25T19:23:31.994Z,17.40
2018-04-25T19:26:02.067Z,17.31
2018-04-25T19:31:06.759Z,17.46
2018-04-25T19:33:35.892Z,17.54
2018-04-25T19:38:40.046Z,17.51
2018-04-25T19:41:10.583Z,17.42
2018-04-25T19:43:42.278Z,17.37
2018-04-25T19:46:11.793Z,17.34
2018-04-25T19:48:40.750Z,17.24
2018-04-25T19:51:09.829Z,17.18
2018-04-25T19:53:39.622Z,17.14
2018-04-25T19:56:08.634Z,17.13
2018-04-25T19:58:37.614Z,17.11
2018-04-25T20:01:06.551Z,17.02
2018-04-25T20:03:35.561Z,16.99
2018-04-25T20:06:07.315Z,17.00
2018-04-25T20:08:36.271Z,16.93
2018-04-25T20:11:06.187Z,16.90
2018-04-25T20:13:35.495Z,16.84
2018-04-25T20:16:05.299Z,16.82
2018-04-25T20:18:34.395Z,16.77
2018-04-25T20:21:03.475Z,16.74
2018-04-25T20:23:32.498Z,16.71
2018-04-25T20:26:02.100Z,16.66
2018-04-25T20:28:32.685Z,16.66
2018-04-25T20:31:01.754Z,16.66
2018-04-25T20:33:31.777Z,16.65
2018-04-25T20:36:00.844Z,16.63
2018-04-25T20:38:29.933Z,16.61
2018-04-25T20:40:59.898Z,16.61
2018-04-25T20:43:29.457Z,16.59
2018-04-25T20:45:58.425Z,16.56
2018-04-25T20:48:27.543Z,16.52
2018-04-25T20:53:30.354Z,16.45
2018-04-25T20:55:59.239Z,16.42
2018-04-25T20:58:28.784Z,16.36
2018-04-25T21:00:57.739Z,16.35
2018-04-25T21:03:26.947Z,16.30
2018-04-25T21:05:56.042Z,16.28
2018-04-25T21:08:25.029Z,16.32
2018-04-25T21:10:54.132Z,16.28
2018-04-25T21:13:23.103Z,16.28
2018-04-25T21:15:52.212Z,16.27
2018-04-25T21:18:21.114Z,16.27
2018-04-25T21:20:51.736Z,16.27
2018-04-25T21:23:20.632Z,16.26
2018-04-25T21:25:51.717Z,16.26
2018-04-25T21:28:20.882Z,16.28
2018-04-25T21:30:49.767Z,16.20
2018-04-25T21:33:18.655Z,16.16
2018-04-25T21:35:49.495Z,16.16
2018-04-25T21:38:18.485Z,16.11
2018-04-25T21:40:48.097Z,16.08
2018-04-25T21:43:17.916Z,16.06
2018-04-25T21:45:47.841Z,16.07
2018-04-25T21:48:16.820Z,16.06
2018-04-25T21:50:47.289Z,16.04
2018-04-25T21:53:16.239Z,16.02
2018-04-25T21:55:46.054Z,15.96
2018-04-25T21:58:16.379Z,15.94
2018-04-25T22:00:45.475Z,15.77
2018-04-25T22:03:14.473Z,15.60
2018-04-25T22:05:45.083Z,15.57
2018-04-25T22:08:14.299Z,15.39
2018-04-25T22:10:43.703Z,15.31
2018-04-25T22:13:13.346Z,15.44
2018-04-25T22:15:42.310Z,15.48
2018-04-25T22:18:12.230Z,15.55
2018-04-25T22:20:43.878Z,15.52
2018-04-25T22:23:13.420Z,15.51
2018-04-25T22:25:42.570Z,15.55
2018-04-25T22:28:13.127Z,15.62
2018-04-25T22:30:42.625Z,15.65
2018-04-25T22:33:11.649Z,15.73
2018-04-25T22:38:15.544Z,15.98
2018-04-25T22:40:44.772Z,15.91
2018-04-25T22:43:14.437Z,15.88
2018-04-25T22:45:45.349Z,15.93
2018-04-25T22:48:15.346Z,15.95
2018-04-25T22:50:44.234Z,15.83
2018-04-25T22:53:13.177Z,15.79
2018-04-25T22:55:43.432Z,15.80
2018-04-25T22:58:13.228Z,15.82
2018-04-25T23:00:42.224Z,15.85
2018-04-25T23:03:11.527Z,15.84
2018-04-25T23:05:42.210Z,15.86
2018-04-25T23:08:11.181Z,15.85
2018-04-25T23:10:40.248Z,15.90
2018-04-25T23:13:10.112Z,15.86
2018-04-25T23:15:38.952Z,15.84
2018-04-25T23:18:09.820Z,15.80
2018-04-25T23:20:38.653Z,15.75
2018-04-25T23:23:08.407Z,15.72
2018-04-25T23:25:37.451Z,15.70
2018-04-25T23:28:07.303Z,15.53
2018-04-25T23:30:36.235Z,15.48
2018-04-25T23:33:06.756Z,15.44
2018-04-25T23:35:35.718Z,15.38
2018-04-25T23:38:04.817Z,15.43
2018-04-25T23:40:33.817Z,15.33
2018-04-25T23:43:03.000Z,15.35
2018-04-25T23:45:31.901Z,15.36
2018-04-25T23:48:02.937Z,15.17
2018-04-25T23:50:31.824Z,15.19
2018-04-25T23:53:01.796Z,15.19
2018-04-25T23:55:30.745Z,15.27
2018-04-25T23:58:00.524Z,15.35
